EZY634M EDLW-EGPH

Flight info

Callsign EZY634M
Flight time 1h 22m
Altitude 36000
Route AGPED
Aircraft A320/M-SDE3FGHIRWY/LB1

Departure

Time 2026-04-26 00:17
Airport Dortmund Airport (EDLW)

Arrival

Time 2026-04-26 01:40
Airport Edinburgh Airport (EGPH)
Time Latitude Longitude Altitude Speed Heading
2026-04-25 23:59 51.51557 7.61246 422 ft 0 kts 149°
2026-04-26 00:08 51.51558 7.61246 422 ft 1 kts 149°
2026-04-26 00:08 51.51569 7.61235 422 ft 3 kts 140°
2026-04-26 00:08 51.51583 7.61212 420 ft 3 kts 127°
2026-04-26 00:09 51.51592 7.61192 424 ft 1 kts 125°
2026-04-26 00:09 51.51595 7.61186 418 ft 0 kts 125°
2026-04-26 00:12 51.51594 7.61189 425 ft 1 kts 118°
2026-04-26 00:12 51.51616 7.61245 427 ft 8 kts 53°
2026-04-26 00:12 51.51650 7.61313 422 ft 8 kts 51°
2026-04-26 00:12 51.51692 7.61390 421 ft 10 kts 47°
2026-04-26 00:13 51.51734 7.61484 418 ft 11 kts 59°
2026-04-26 00:13 51.51773 7.61595 413 ft 12 kts 61°
2026-04-26 00:13 51.51817 7.61721 408 ft 14 kts 60°
2026-04-26 00:13 51.51862 7.61849 409 ft 13 kts 60°
2026-04-26 00:14 51.51905 7.61970 411 ft 13 kts 61°
2026-04-26 00:14 51.51946 7.62093 414 ft 12 kts 60°
2026-04-26 00:14 51.51985 7.62200 412 ft 11 kts 60°
2026-04-26 00:14 51.52023 7.62306 408 ft 12 kts 60°
2026-04-26 00:15 51.52070 7.62438 409 ft 16 kts 60°
2026-04-26 00:15 51.52130 7.62610 404 ft 20 kts 60°
2026-04-26 00:15 51.52195 7.62768 402 ft 12 kts 38°
2026-04-26 00:15 51.52271 7.62758 401 ft 11 kts 332°
2026-04-26 00:16 51.52327 7.62706 402 ft 8 kts 330°
2026-04-26 00:16 51.52333 7.62649 403 ft 4 kts 245°
2026-04-26 00:16 51.52299 7.62548 402 ft 38 kts 241°
2026-04-26 00:16 51.52018 7.61753 412 ft 123 kts 240°
2026-04-26 00:17 51.51519 7.60326 789 ft 156 kts 242°
2026-04-26 00:17 51.50994 7.58707 1515 ft 166 kts 243°
2026-04-26 00:17 51.50452 7.57016 1962 ft 183 kts 242°
2026-04-26 00:17 51.49799 7.55130 2273 ft 205 kts 241°
2026-04-26 00:18 51.49053 7.53015 2602 ft 230 kts 240°
2026-04-26 00:18 51.48222 7.50662 3084 ft 253 kts 240°
2026-04-26 00:18 51.47338 7.48163 3895 ft 261 kts 240°
2026-04-26 00:18 51.46431 7.45600 4525 ft 267 kts 240°
2026-04-26 00:19 51.45528 7.42991 4721 ft 267 kts 245°
2026-04-26 00:19 51.45127 7.40094 5354 ft 270 kts 270°
2026-04-26 00:19 51.45487 7.37147 6290 ft 273 kts 294°
2026-04-26 00:19 51.46519 7.34588 7186 ft 276 kts 307°
2026-04-26 00:20 51.47679 7.32113 8077 ft 279 kts 307°
2026-04-26 00:20 51.48838 7.29658 8923 ft 282 kts 307°
2026-04-26 00:20 51.50030 7.27130 9758 ft 286 kts 307°
2026-04-26 00:20 51.51222 7.24597 10346 ft 299 kts 306°
2026-04-26 00:21 51.52522 7.21830 10859 ft 317 kts 308°
2026-04-26 00:21 51.53839 7.19018 11825 ft 315 kts 308°
2026-04-26 00:21 51.55158 7.16194 12639 ft 318 kts 308°
2026-04-26 00:21 51.56491 7.13335 13388 ft 322 kts 308°
2026-04-26 00:22 51.57843 7.10431 14108 ft 327 kts 308°
2026-04-26 00:22 51.59212 7.07489 14743 ft 331 kts 308°
2026-04-26 00:22 51.60581 7.04544 15380 ft 335 kts 308°
2026-04-26 00:22 51.61983 7.01525 16025 ft 339 kts 308°
2026-04-26 00:23 51.63400 6.98475 16662 ft 343 kts 308°
2026-04-26 00:23 51.64833 6.95381 17304 ft 347 kts 308°
2026-04-26 00:23 51.66281 6.92245 17927 ft 351 kts 308°
2026-04-26 00:23 51.67743 6.89075 18540 ft 355 kts 308°
2026-04-26 00:24 51.69223 6.85870 19081 ft 358 kts 307°
2026-04-26 00:24 51.70714 6.82630 19627 ft 361 kts 307°
2026-04-26 00:24 51.72197 6.79405 20167 ft 365 kts 307°
2026-04-26 00:24 51.73715 6.76103 20685 ft 368 kts 307°
2026-04-26 00:25 51.75250 6.72766 21207 ft 372 kts 307°
2026-04-26 00:25 51.76797 6.69401 21729 ft 375 kts 307°
2026-04-26 00:25 51.78354 6.65998 22241 ft 378 kts 307°
2026-04-26 00:25 51.79921 6.62568 22749 ft 381 kts 307°
2026-04-26 00:26 51.81501 6.59110 23263 ft 384 kts 306°
2026-04-26 00:26 51.83091 6.55624 23758 ft 387 kts 306°
2026-04-26 00:26 51.84697 6.52098 24178 ft 390 kts 306°
2026-04-26 00:26 51.86284 6.48600 24629 ft 390 kts 306°
2026-04-26 00:27 51.87844 6.45156 25759 ft 369 kts 306°
2026-04-26 00:27 51.89314 6.41905 26942 ft 349 kts 307°
2026-04-26 00:27 51.90710 6.38815 28050 ft 332 kts 307°
2026-04-26 00:27 51.92065 6.35820 28705 ft 329 kts 307°
2026-04-26 00:28 51.93416 6.32821 29142 ft 330 kts 306°
2026-04-26 00:28 51.94787 6.29783 29429 ft 336 kts 306°
2026-04-26 00:28 51.96169 6.26726 29907 ft 336 kts 307°
2026-04-26 00:28 51.97534 6.23700 30318 ft 338 kts 306°
2026-04-26 00:29 51.98928 6.20608 30649 ft 341 kts 306°
2026-04-26 00:29 52.00329 6.17492 30972 ft 343 kts 306°
2026-04-26 00:29 52.01742 6.14348 31294 ft 346 kts 306°
2026-04-26 00:29 52.03165 6.11177 31591 ft 349 kts 306°
2026-04-26 00:30 52.04594 6.07979 31906 ft 351 kts 306°
2026-04-26 00:30 52.06030 6.04753 32229 ft 353 kts 306°
2026-04-26 00:30 52.07475 6.01504 32527 ft 356 kts 306°
2026-04-26 00:30 52.08933 5.98224 32832 ft 359 kts 306°
2026-04-26 00:31 52.10382 5.94966 33134 ft 361 kts 306°
2026-04-26 00:31 52.11861 5.91647 33436 ft 364 kts 306°
2026-04-26 00:31 52.13353 5.88297 33686 ft 367 kts 306°
2026-04-26 00:31 52.14855 5.84915 33950 ft 370 kts 306°
2026-04-26 00:32 52.16369 5.81504 34237 ft 372 kts 306°
2026-04-26 00:32 52.17888 5.78076 34435 ft 376 kts 306°
2026-04-26 00:32 52.20987 5.71059 34680 ft 387 kts 306°
2026-04-26 00:33 52.24008 5.64187 34905 ft 396 kts 306°
2026-04-26 00:33 52.25581 5.60610 35049 ft 401 kts 306°
2026-04-26 00:33 52.26841 5.57737 35147 ft 404 kts 306°
2026-04-26 00:34 52.28486 5.53986 35272 ft 409 kts 306°
2026-04-26 00:34 52.30147 5.50197 35398 ft 413 kts 306°
2026-04-26 00:34 52.31831 5.46355 35527 ft 417 kts 306°
2026-04-26 00:34 52.33510 5.42494 35651 ft 421 kts 305°
2026-04-26 00:35 52.35190 5.38620 35776 ft 424 kts 305°
2026-04-26 00:35 52.36906 5.34671 35913 ft 428 kts 305°
2026-04-26 00:35 52.38636 5.30696 36034 ft 431 kts 305°
2026-04-26 00:35 52.40345 5.26766 36217 ft 432 kts 305°
2026-04-26 00:36 52.43804 5.18772 36292 ft 427 kts 305°
2026-04-26 00:36 52.47185 5.10914 36291 ft 425 kts 305°
2026-04-26 00:37 52.50594 5.02993 36296 ft 425 kts 305°
2026-04-26 00:37 52.54003 4.95060 36284 ft 425 kts 305°
2026-04-26 00:38 52.57402 4.87094 36291 ft 426 kts 305°
2026-04-26 00:38 52.60777 4.79165 36287 ft 426 kts 304°
2026-04-26 00:39 52.64167 4.71181 36291 ft 425 kts 304°
2026-04-26 00:39 52.67551 4.63193 36292 ft 425 kts 304°
2026-04-26 00:40 52.70919 4.55191 36300 ft 424 kts 304°
2026-04-26 00:40 52.74282 4.47190 36298 ft 424 kts 304°
2026-04-26 00:41 52.77613 4.39269 36314 ft 422 kts 304°
2026-04-26 00:41 52.80951 4.31289 36314 ft 421 kts 304°
2026-04-26 00:42 52.84267 4.23317 36319 ft 421 kts 304°
2026-04-26 00:42 52.87582 4.15339 36313 ft 420 kts 304°
2026-04-26 00:43 52.90871 4.07412 36313 ft 420 kts 304°
2026-04-26 00:43 52.94176 3.99417 36316 ft 421 kts 303°
2026-04-26 00:44 52.97466 3.91403 36313 ft 421 kts 303°
2026-04-26 00:44 53.00759 3.83372 36312 ft 421 kts 303°
2026-04-26 00:45 53.03497 3.76686 36295 ft 421 kts 303°
2026-04-26 00:45 53.07324 3.67296 36299 ft 423 kts 303°
2026-04-26 00:46 53.10614 3.59189 36310 ft 423 kts 303°
2026-04-26 00:46 53.13894 3.51076 36306 ft 422 kts 302°
2026-04-26 00:47 53.17149 3.43000 36310 ft 423 kts 303°
2026-04-26 00:47 53.20433 3.34870 36313 ft 423 kts 303°
2026-04-26 00:48 53.23703 3.26729 36312 ft 422 kts 303°
2026-04-26 00:48 53.26965 3.18569 36316 ft 422 kts 302°
2026-04-26 00:49 53.30194 3.10472 36310 ft 422 kts 302°
2026-04-26 00:49 53.33441 3.02303 36285 ft 422 kts 302°
2026-04-26 00:50 53.36687 2.94109 36280 ft 423 kts 302°
2026-04-26 00:50 53.39930 2.85889 36298 ft 423 kts 302°
2026-04-26 00:51 53.43170 2.77641 36302 ft 424 kts 302°
2026-04-26 00:51 53.46388 2.69446 36306 ft 424 kts 302°
2026-04-26 00:52 53.49621 2.61171 36300 ft 424 kts 302°
2026-04-26 00:52 53.52847 2.52871 36287 ft 424 kts 301°
2026-04-26 00:53 53.56073 2.44563 36296 ft 425 kts 302°
2026-04-26 00:53 53.59283 2.36289 36316 ft 425 kts 302°
2026-04-26 00:54 53.62514 2.27930 36307 ft 426 kts 302°
2026-04-26 00:54 53.65737 2.19544 36321 ft 426 kts 301°
2026-04-26 00:55 53.68937 2.11205 36317 ft 426 kts 301°
2026-04-26 00:55 53.72146 2.02780 36337 ft 427 kts 301°
2026-04-26 00:56 53.75347 1.94342 36339 ft 427 kts 301°
2026-04-26 00:56 53.78550 1.85896 36339 ft 427 kts 301°
2026-04-26 00:57 53.81726 1.77505 36348 ft 427 kts 301°
2026-04-26 00:57 53.84921 1.69037 36349 ft 427 kts 301°
2026-04-26 00:58 53.88111 1.60552 36346 ft 427 kts 301°
2026-04-26 00:58 53.91282 1.52064 36350 ft 426 kts 301°
2026-04-26 00:59 53.94455 1.43566 36352 ft 426 kts 301°
2026-04-26 00:59 53.97596 1.35122 36350 ft 425 kts 301°
2026-04-26 01:00 54.00744 1.26617 36355 ft 425 kts 301°
2026-04-26 01:00 54.03880 1.18098 36336 ft 425 kts 300°
2026-04-26 01:01 54.07015 1.09575 36339 ft 425 kts 300°
2026-04-26 01:01 54.10128 1.01095 36353 ft 425 kts 300°
2026-04-26 01:02 54.13248 0.92548 36351 ft 424 kts 300°
2026-04-26 01:02 54.16359 0.84001 36342 ft 424 kts 300°
2026-04-26 01:03 54.18939 0.76893 36341 ft 424 kts 300°
2026-04-26 01:03 54.22040 0.68339 36342 ft 424 kts 300°
2026-04-26 01:04 54.25132 0.59759 36347 ft 423 kts 300°
2026-04-26 01:04 54.28192 0.51238 36347 ft 423 kts 300°
2026-04-26 01:05 54.31268 0.42643 36343 ft 423 kts 300°
2026-04-26 01:05 54.34339 0.34038 36343 ft 423 kts 299°
2026-04-26 01:06 54.37401 0.25425 36343 ft 423 kts 299°
2026-04-26 01:06 54.40441 0.16862 36342 ft 423 kts 299°
2026-04-26 01:07 54.43488 0.08231 36339 ft 423 kts 299°
2026-04-26 01:07 54.46528 -0.00411 36344 ft 423 kts 299°
2026-04-26 01:08 54.49559 -0.09067 36348 ft 422 kts 299°
2026-04-26 01:08 54.52566 -0.17662 36355 ft 422 kts 299°
2026-04-26 01:09 54.55582 -0.26320 36349 ft 422 kts 298°
2026-04-26 01:09 54.58594 -0.34988 36346 ft 421 kts 298°
2026-04-26 01:10 54.61593 -0.43672 36341 ft 421 kts 298°
2026-04-26 01:10 54.64567 -0.52306 36340 ft 421 kts 298°
2026-04-26 01:11 54.67546 -0.61013 36340 ft 421 kts 298°
2026-04-26 01:11 54.70401 -0.69833 36338 ft 420 kts 296°
2026-04-26 01:12 54.73174 -0.78730 36338 ft 420 kts 296°
2026-04-26 01:12 54.75926 -0.87573 36342 ft 420 kts 296°
2026-04-26 01:13 54.78717 -0.96472 36337 ft 420 kts 296°
2026-04-26 01:13 54.81507 -1.05370 36334 ft 420 kts 296°
2026-04-26 01:14 54.84291 -1.14278 36338 ft 420 kts 296°
2026-04-26 01:14 54.87060 -1.23192 36333 ft 420 kts 296°
2026-04-26 01:15 54.89808 -1.32084 36307 ft 421 kts 296°
2026-04-26 01:15 54.92574 -1.41085 36305 ft 423 kts 296°
2026-04-26 01:16 54.95343 -1.50124 36307 ft 424 kts 296°
2026-04-26 01:16 54.98115 -1.59189 36073 ft 424 kts 296°
2026-04-26 01:17 54.99472 -1.63626 35662 ft 418 kts 296°
2026-04-26 01:17 55.00825 -1.68065 35241 ft 412 kts 295°
2026-04-26 01:17 55.02160 -1.72460 34782 ft 408 kts 295°
2026-04-26 01:17 55.03478 -1.76813 34338 ft 405 kts 295°
2026-04-26 01:18 55.04786 -1.81139 33826 ft 401 kts 295°
2026-04-26 01:18 55.06080 -1.85420 33343 ft 397 kts 295°
2026-04-26 01:18 55.07358 -1.89661 32863 ft 393 kts 295°
2026-04-26 01:18 55.08625 -1.93864 32398 ft 389 kts 295°
2026-04-26 01:19 55.09860 -1.97962 31931 ft 385 kts 295°
2026-04-26 01:19 55.11100 -2.02091 31484 ft 382 kts 295°
2026-04-26 01:19 55.12327 -2.06176 31040 ft 378 kts 295°
2026-04-26 01:19 55.13541 -2.10230 30598 ft 375 kts 295°
2026-04-26 01:20 55.14742 -2.14248 30122 ft 371 kts 295°
2026-04-26 01:20 55.15931 -2.18230 29604 ft 368 kts 295°
2026-04-26 01:20 55.17108 -2.22181 29096 ft 365 kts 295°
2026-04-26 01:20 55.18272 -2.26105 28592 ft 362 kts 295°
2026-04-26 01:21 55.19410 -2.29945 28108 ft 359 kts 295°
2026-04-26 01:21 55.20552 -2.33817 27626 ft 357 kts 295°
2026-04-26 01:21 55.21685 -2.37655 27143 ft 354 kts 295°
2026-04-26 01:21 55.22813 -2.41482 26662 ft 352 kts 295°
2026-04-26 01:22 55.23930 -2.45280 26204 ft 350 kts 295°
2026-04-26 01:22 55.25038 -2.49051 25757 ft 347 kts 295°
2026-04-26 01:22 55.26143 -2.52806 25315 ft 345 kts 295°
2026-04-26 01:22 55.27238 -2.56540 24884 ft 343 kts 295°
2026-04-26 01:23 55.28321 -2.60249 24449 ft 341 kts 295°
2026-04-26 01:23 55.29384 -2.63900 24032 ft 339 kts 295°
2026-04-26 01:23 55.30454 -2.67571 23565 ft 337 kts 295°
2026-04-26 01:23 55.31522 -2.71225 22973 ft 338 kts 295°
2026-04-26 01:24 55.32614 -2.74977 21919 ft 352 kts 295°
2026-04-26 01:24 55.33746 -2.78891 20841 ft 366 kts 295°
2026-04-26 01:24 55.34917 -2.82952 19745 ft 380 kts 295°
2026-04-26 01:24 55.36134 -2.87174 18619 ft 393 kts 295°
2026-04-26 01:25 55.37386 -2.91511 17304 ft 404 kts 295°
2026-04-26 01:25 55.38657 -2.95906 16245 ft 411 kts 295°
2026-04-26 01:25 55.39952 -3.00381 15428 ft 410 kts 295°
2026-04-26 01:25 55.41242 -3.04843 14678 ft 408 kts 295°
2026-04-26 01:26 55.42522 -3.09285 13939 ft 405 kts 295°
2026-04-26 01:26 55.43786 -3.13692 13170 ft 402 kts 295°
2026-04-26 01:26 55.45034 -3.18067 12446 ft 397 kts 295°
2026-04-26 01:26 55.46263 -3.22397 11739 ft 393 kts 295°
2026-04-26 01:27 55.47472 -3.26671 11051 ft 388 kts 295°
2026-04-26 01:27 55.48652 -3.30848 10387 ft 383 kts 295°
2026-04-26 01:27 55.49852 -3.35012 9663 ft 379 kts 298°
2026-04-26 01:27 55.51516 -3.38562 8954 ft 376 kts 315°
2026-04-26 01:28 55.53461 -3.41625 8199 ft 373 kts 318°
2026-04-26 01:28 55.55454 -3.44516 7473 ft 369 kts 320°
2026-04-26 01:28 55.57439 -3.47335 6977 ft 359 kts 320°
2026-04-26 01:28 55.59306 -3.49955 6757 ft 327 kts 320°
2026-04-26 01:29 55.61007 -3.52336 6591 ft 297 kts 320°
2026-04-26 01:29 55.62532 -3.54476 6457 ft 271 kts 320°
2026-04-26 01:29 55.63952 -3.56480 6331 ft 255 kts 319°
2026-04-26 01:29 55.65324 -3.58429 6306 ft 252 kts 319°
2026-04-26 01:30 55.66687 -3.60374 6151 ft 250 kts 319°
2026-04-26 01:30 55.68067 -3.62347 5118 ft 263 kts 319°
2026-04-26 01:30 55.69513 -3.64422 4375 ft 264 kts 319°
2026-04-26 01:30 55.70868 -3.66379 4242 ft 240 kts 319°
2026-04-26 01:31 55.72108 -3.68179 4123 ft 222 kts 319°
2026-04-26 01:31 55.73280 -3.69889 4028 ft 220 kts 319°
2026-04-26 01:31 55.74434 -3.71571 4006 ft 208 kts 319°
2026-04-26 01:31 55.75526 -3.73171 4008 ft 201 kts 316°
2026-04-26 01:32 55.76531 -3.74847 4021 ft 193 kts 313°
2026-04-26 01:32 55.77452 -3.76429 4019 ft 177 kts 320°
2026-04-26 01:32 55.78527 -3.77261 4013 ft 164 kts 351°
2026-04-26 01:32 55.79635 -3.77036 4013 ft 160 kts 21°
2026-04-26 01:33 55.80517 -3.75903 4034 ft 155 kts 47°
2026-04-26 01:33 55.81235 -3.74537 4021 ft 152 kts 46°
2026-04-26 01:33 55.81959 -3.73179 4016 ft 151 kts 46°
2026-04-26 01:33 55.82680 -3.71824 4014 ft 151 kts 46°
2026-04-26 01:34 55.83397 -3.70467 4014 ft 150 kts 48°
2026-04-26 01:34 55.84044 -3.69002 4002 ft 151 kts 54°
2026-04-26 01:34 55.84637 -3.67458 3872 ft 151 kts 57°
2026-04-26 01:34 55.85201 -3.65893 3694 ft 150 kts 59°
2026-04-26 01:35 55.85752 -3.64323 3517 ft 149 kts 59°
2026-04-26 01:35 55.86293 -3.62763 3314 ft 148 kts 59°
2026-04-26 01:35 55.86819 -3.61233 3116 ft 146 kts 61°
2026-04-26 01:35 55.87343 -3.59709 2915 ft 143 kts 60°
2026-04-26 01:36 55.87855 -3.58214 2731 ft 140 kts 60°
2026-04-26 01:36 55.88357 -3.56746 2537 ft 137 kts 61°
2026-04-26 01:36 55.88850 -3.55305 2352 ft 135 kts 61°
2026-04-26 01:37 55.89813 -3.52489 1976 ft 131 kts 60°
2026-04-26 01:37 55.90284 -3.51107 1795 ft 130 kts 60°
2026-04-26 01:37 55.90751 -3.49739 1615 ft 127 kts 60°
2026-04-26 01:37 55.91206 -3.48403 1432 ft 125 kts 60°
2026-04-26 01:38 55.91652 -3.47096 1258 ft 125 kts 60°
2026-04-26 01:38 55.92100 -3.45779 1081 ft 124 kts 60°
2026-04-26 01:38 55.92548 -3.44463 898 ft 124 kts 59°
2026-04-26 01:38 55.92995 -3.43151 728 ft 124 kts 59°
2026-04-26 01:39 55.93447 -3.41843 525 ft 124 kts 59°
2026-04-26 01:39 55.93875 -3.40521 354 ft 124 kts 61°
2026-04-26 01:39 55.94327 -3.39222 180 ft 122 kts 59°
2026-04-26 01:39 55.94760 -3.37951 116 ft 112 kts 59°
2026-04-26 01:40 55.95043 -3.37120 112 ft 38 kts 59°
2026-04-26 01:40 55.95076 -3.37022 114 ft 6 kts 59°
2026-04-26 01:40 55.95185 -3.36698 114 ft 40 kts 59°
2026-04-26 01:40 55.95247 -3.36403 111 ft 17 kts 125°
2026-04-26 01:41 55.95169 -3.36323 113 ft 9 kts 145°
2026-04-26 01:41 55.95153 -3.36239 115 ft 7 kts 76°
2026-04-26 01:41 55.95150 -3.36205 114 ft 1 kts 187°
2026-04-26 01:41 55.95139 -3.36236 114 ft 5 kts 235°
2026-04-26 01:42 55.95125 -3.36282 115 ft 4 kts 242°
2026-04-26 01:42 55.95112 -3.36325 113 ft 6 kts 241°
2026-04-26 01:42 55.95059 -3.36498 114 ft 19 kts 239°
2026-04-26 01:42 55.94995 -3.36694 114 ft 17 kts 239°
2026-04-26 01:43 55.94927 -3.36813 115 ft 13 kts 176°
2026-04-26 01:43 55.94849 -3.36775 116 ft 10 kts 176°
2026-04-26 01:43 55.94783 -3.36766 116 ft 9 kts 161°
2026-04-26 01:43 55.94729 -3.36737 116 ft 8 kts 176°
2026-04-26 01:44 55.94680 -3.36735 116 ft 7 kts 181°
2026-04-26 01:44 55.94657 -3.36700 115 ft 4 kts 96°
2026-04-26 01:44 55.94656 -3.36656 116 ft 3 kts 90°
2026-04-26 01:44 55.94657 -3.36624 115 ft 2 kts 89°
2026-04-26 01:45 55.94657 -3.36608 116 ft 0 kts 89°